Time;durP1;ratioP1;P1;durP2;ratioP2;P2;SDS_P1;SDS_P2;PMS_P1;PMS_P2;Temp;Humidity;BMP_temperature;BMP_pressure;BME280_temperature;BME280_humidity;BME280_pressure;Samples;Min_cycle;Max_cycle;Signal;HPM_P1;HPM_P2
2022/10/27 00:00:30;;;;;;;14.05;6.95;;;;;;;;;;5071513;28;20036;-64
2022/10/27 00:02:56;;;;;;;10.70;6.30;;;;;;;;;;5069587;28;20044;-64
2022/10/27 00:05:22;;;;;;;11.52;6.05;;;;;;;;;;5070395;28;20036;-64
2022/10/27 00:07:48;;;;;;;10.63;6.20;;;;;;;;;;5071235;28;20383;-64
2022/10/27 00:10:14;;;;;;;10.55;6.00;;;;;;;;;;5070756;28;20155;-64
2022/10/27 00:12:40;;;;;;;6.68;5.28;;;;;;;;;;5070678;28;20723;-64
2022/10/27 00:15:07;;;;;;;12.35;6.10;;;;;;;;;;5071707;28;20044;-64
2022/10/27 00:17:32;;;;;;;11.73;6.47;;;;;;;;;;5071469;28;20071;-63
2022/10/27 00:20:00;;;;;;;9.52;5.65;;;;;;;;;;5069887;28;20071;-64
2022/10/27 00:22:26;;;;;;;10.95;6.15;;;;;;;;;;5070505;28;20471;-64
2022/10/27 00:24:51;;;;;;;12.73;6.70;;;;;;;;;;5071378;28;20064;-64
2022/10/27 00:27:18;;;;;;;12.18;6.55;;;;;;;;;;5071363;28;20120;-64
2022/10/27 00:29:44;;;;;;;12.70;6.65;;;;;;;;;;5071744;28;20037;-64
2022/10/27 00:32:10;;;;;;;14.35;7.35;;;;;;;;;;5069436;28;20044;-64
2022/10/27 00:34:36;;;;;;;12.82;7.22;;;;;;;;;;5071649;28;20037;-64
2022/10/27 00:37:02;;;;;;;13.90;6.82;;;;;;;;;;5071393;28;20095;-64
2022/10/27 00:39:28;;;;;;;9.85;7.35;;;;;;;;;;5070939;28;20045;-64
2022/10/27 00:41:54;;;;;;;10.27;6.47;;;;;;;;;;5068914;28;20051;-62
2022/10/27 00:44:36;;;;;;;13.63;7.50;;;;;;;;;;5069641;28;20045;-64
2022/10/27 00:47:22;;;;;;;12.82;6.70;;;;;;;;;;5071568;28;20044;-64
2022/10/27 00:49:55;;;;;;;12.93;7.60;;;;;;;;;;5070083;28;20398;-64
2022/10/27 00:52:32;;;;;;;11.07;7.00;;;;;;;;;;5070315;28;20051;-64
2022/10/27 00:55:01;;;;;;;16.25;7.93;;;;;;;;;;5063871;28;20101;-64
2022/10/27 00:57:27;;;;;;;13.68;7.38;;;;;;;;;;5071479;28;20045;-64
2022/10/27 00:59:53;;;;;;;11.68;6.88;;;;;;;;;;5071055;28;20049;-64
2022/10/27 01:02:19;;;;;;;13.15;7.13;;;;;;;;;;5067225;28;20044;-65
2022/10/27 01:04:49;;;;;;;15.10;6.75;;;;;;;;;;5070069;28;20047;-64
2022/10/27 01:07:16;;;;;;;13.43;6.80;;;;;;;;;;5066853;28;20060;-65
2022/10/27 01:09:43;;;;;;;14.25;7.18;;;;;;;;;;5063274;28;20127;-64
2022/10/27 01:12:09;;;;;;;12.57;6.97;;;;;;;;;;5069854;28;20154;-64
2022/10/27 01:14:35;;;;;;;13.27;7.75;;;;;;;;;;5071201;28;20074;-64
2022/10/27 01:17:01;;;;;;;10.75;6.85;;;;;;;;;;5070525;28;20036;-64
2022/10/27 01:19:45;;;;;;;14.02;7.68;;;;;;;;;;5069978;28;20399;-64
2022/10/27 01:22:36;;;;;;;14.70;7.50;;;;;;;;;;5068682;28;20033;-64
2022/10/27 01:25:21;;;;;;;14.10;7.63;;;;;;;;;;5067458;28;20093;-64
2022/10/27 01:28:05;;;;;;;13.23;6.82;;;;;;;;;;5070411;28;20056;-64
2022/10/27 01:30:36;;;;;;;11.07;6.75;;;;;;;;;;5069871;28;20036;-64
2022/10/27 01:33:10;;;;;;;13.40;7.85;;;;;;;;;;5066789;28;20036;-64
2022/10/27 01:35:42;;;;;;;13.77;7.63;;;;;;;;;;5072776;28;20486;-64
2022/10/27 01:38:31;;;;;;;14.70;7.47;;;;;;;;;;5073961;28;20110;-64
2022/10/27 01:41:06;;;;;;;15.50;7.25;;;;;;;;;;5075268;28;20045;-64
2022/10/27 01:43:33;;;;;;;12.52;7.15;;;;;;;;;;5071901;28;20081;-64
2022/10/27 01:46:01;;;;;;;14.23;7.68;;;;;;;;;;5074691;28;20040;-64
2022/10/27 01:48:27;;;;;;;13.25;6.80;;;;;;;;;;5069088;28;20081;-64
2022/10/27 01:50:53;;;;;;;15.10;7.25;;;;;;;;;;5067990;28;20037;-64
2022/10/27 01:53:19;;;;;;;14.25;7.70;;;;;;;;;;5073388;28;20037;-64
2022/10/27 01:55:45;;;;;;;13.88;7.50;;;;;;;;;;5074581;28;20077;-64
2022/10/27 01:58:26;;;;;;;13.57;7.68;;;;;;;;;;5066646;28;20045;-64
2022/10/27 02:00:58;;;;;;;16.00;7.82;;;;;;;;;;5071805;28;20037;-64
2022/10/27 02:03:27;;;;;;;11.65;7.28;;;;;;;;;;5073360;28;20036;-64
2022/10/27 02:05:58;;;;;;;14.00;7.40;;;;;;;;;;5073203;28;20028;-64
2022/10/27 02:08:24;;;;;;;;;;;;;;;;;;5071192;28;20040;-64
2022/10/27 02:10:50;;;;;;;17.02;8.02;;;;;;;;;;5072033;28;19996;-64
2022/10/27 02:13:16;;;;;;;12.35;7.93;;;;;;;;;;5068608;28;20072;-64
2022/10/27 02:15:44;;;;;;;12.25;7.35;;;;;;;;;;5072918;28;20032;-64
2022/10/27 02:18:19;;;;;;;10.52;7.28;;;;;;;;;;5073149;28;20083;-64
2022/10/27 02:20:47;;;;;;;14.63;7.47;;;;;;;;;;5072480;28;20040;-64
2022/10/27 02:23:18;;;;;;;12.57;7.47;;;;;;;;;;5071820;28;20036;-64
2022/10/27 02:25:50;;;;;;;12.63;7.57;;;;;;;;;;5074095;28;20078;-64
2022/10/27 02:28:18;;;;;;;11.88;7.15;;;;;;;;;;5074991;28;20048;-64
2022/10/27 02:30:45;;;;;;;12.40;7.45;;;;;;;;;;5072609;28;20497;-64
2022/10/27 02:33:12;;;;;;;13.05;7.75;;;;;;;;;;5084389;28;20068;-64
2022/10/27 02:35:38;;;;;;;11.25;6.68;;;;;;;;;;5071044;28;20102;-64
2022/10/27 02:38:04;;;;;;;10.77;7.57;;;;;;;;;;5071471;28;20041;-64
2022/10/27 02:40:30;;;;;;;13.10;7.50;;;;;;;;;;5072594;28;20615;-64
2022/10/27 02:42:56;;;;;;;11.38;6.78;;;;;;;;;;5072369;28;20036;-64
2022/10/27 02:45:22;;;;;;;13.55;7.10;;;;;;;;;;5066385;28;20043;-63
2022/10/27 02:47:48;;;;;;;10.20;6.50;;;;;;;;;;5072074;28;20044;-64
2022/10/27 02:50:14;;;;;;;17.33;7.75;;;;;;;;;;5071342;28;20395;-64
2022/10/27 02:52:42;;;;;;;8.50;6.13;;;;;;;;;;5070231;28;20112;-64
2022/10/27 02:55:09;;;;;;;11.05;6.72;;;;;;;;;;5072580;28;20053;-64
2022/10/27 02:57:35;;;;;;;10.93;7.10;;;;;;;;;;5071452;28;20044;-64
2022/10/27 03:00:00;;;;;;;12.30;7.63;;;;;;;;;;5069788;28;20033;-64
2022/10/27 03:02:26;;;;;;;14.55;8.48;;;;;;;;;;5071865;28;20241;-64
2022/10/27 03:04:53;;;;;;;8.35;6.35;;;;;;;;;;5071129;28;20113;-64
2022/10/27 03:07:19;;;;;;;11.45;7.38;;;;;;;;;;5070655;28;20068;-64
2022/10/27 03:09:45;;;;;;;11.23;6.90;;;;;;;;;;5072845;28;20043;-64
2022/10/27 03:12:12;;;;;;;10.07;7.22;;;;;;;;;;5070056;28;20056;-64
2022/10/27 03:14:38;;;;;;;7.93;5.53;;;;;;;;;;5071059;28;20044;-64
2022/10/27 03:17:04;;;;;;;10.70;6.50;;;;;;;;;;5069794;28;20040;-64
2022/10/27 03:19:30;;;;;;;9.25;6.45;;;;;;;;;;5070238;28;20068;-64
2022/10/27 03:21:56;;;;;;;13.23;6.45;;;;;;;;;;5070214;28;20418;-64
2022/10/27 03:24:22;;;;;;;12.23;6.72;;;;;;;;;;5071282;28;20111;-64
2022/10/27 03:26:48;;;;;;;11.55;7.30;;;;;;;;;;5070738;28;20069;-64
2022/10/27 03:29:14;;;;;;;13.52;6.57;;;;;;;;;;5069685;28;20509;-64
2022/10/27 03:31:40;;;;;;;12.10;6.82;;;;;;;;;;5072315;28;20119;-64
2022/10/27 03:34:06;;;;;;;8.88;5.80;;;;;;;;;;5071012;28;20082;-64
2022/10/27 03:36:32;;;;;;;14.18;8.50;;;;;;;;;;5077527;28;20035;-64
2022/10/27 03:38:58;;;;;;;8.48;6.43;;;;;;;;;;5072024;28;20044;-64
2022/10/27 03:41:24;;;;;;;12.07;7.60;;;;;;;;;;5071208;28;20036;-64
2022/10/27 03:43:50;;;;;;;11.00;6.97;;;;;;;;;;5070565;28;20099;-64
2022/10/27 03:46:16;;;;;;;13.95;7.97;;;;;;;;;;5077632;28;20379;-64
2022/10/27 03:48:42;;;;;;;17.23;8.40;;;;;;;;;;5072064;28;20064;-64
2022/10/27 03:51:08;;;;;;;13.25;8.32;;;;;;;;;;5068787;28;20044;-64
2022/10/27 03:53:34;;;;;;;13.32;8.23;;;;;;;;;;5070066;28;20089;-64
2022/10/27 03:56:00;;;;;;;14.40;8.52;;;;;;;;;;5070225;28;20432;-64
2022/10/27 03:58:26;;;;;;;9.75;7.30;;;;;;;;;;5071610;28;20037;-64
2022/10/27 04:00:52;;;;;;;14.80;8.13;;;;;;;;;;5067112;28;20024;-65
2022/10/27 04:03:18;;;;;;;13.43;7.68;;;;;;;;;;5059100;28;20053;-64
2022/10/27 04:05:48;;;;;;;13.60;7.82;;;;;;;;;;5061381;28;20040;-64
2022/10/27 04:08:14;;;;;;;12.77;7.80;;;;;;;;;;5059765;28;20045;-64
2022/10/27 04:10:40;;;;;;;10.20;6.65;;;;;;;;;;5067031;28;20069;-64
2022/10/27 04:13:06;;;;;;;10.95;8.35;;;;;;;;;;5069576;28;20067;-64
2022/10/27 04:15:32;;;;;;;11.95;8.30;;;;;;;;;;5067391;28;20116;-64
2022/10/27 04:17:59;;;;;;;11.15;7.13;;;;;;;;;;5064334;28;20048;-64
2022/10/27 04:20:25;;;;;;;14.90;8.32;;;;;;;;;;5069386;28;20040;-64
2022/10/27 04:22:51;;;;;;;13.77;7.25;;;;;;;;;;5069233;28;20036;-64
2022/10/27 04:25:17;;;;;;;10.38;7.70;;;;;;;;;;5070392;28;20040;-64
2022/10/27 04:27:43;;;;;;;12.23;7.82;;;;;;;;;;5069539;28;20039;-64
2022/10/27 04:30:10;;;;;;;15.48;8.20;;;;;;;;;;5068756;28;20037;-64
2022/10/27 04:32:36;;;;;;;13.18;7.40;;;;;;;;;;5062903;28;20162;-64
2022/10/27 04:35:02;;;;;;;15.57;8.43;;;;;;;;;;5068672;28;20032;-64
2022/10/27 04:37:28;;;;;;;13.32;7.32;;;;;;;;;;5066632;28;20047;-64
2022/10/27 04:39:54;;;;;;;10.70;7.32;;;;;;;;;;5068494;28;20033;-64
2022/10/27 04:42:20;;;;;;;13.18;7.70;;;;;;;;;;5069673;28;20490;-64
2022/10/27 04:44:46;;;;;;;11.75;7.90;;;;;;;;;;5068699;28;20037;-64
2022/10/27 04:47:12;;;;;;;12.43;8.75;;;;;;;;;;5070604;28;20040;-63
2022/10/27 04:49:38;;;;;;;11.90;7.97;;;;;;;;;;5061615;28;20048;-63
2022/10/27 04:52:04;;;;;;;14.70;8.82;;;;;;;;;;5058512;28;20485;-64
2022/10/27 04:54:30;;;;;;;12.52;8.75;;;;;;;;;;5065597;28;20123;-64
2022/10/27 04:56:56;;;;;;;13.13;8.68;;;;;;;;;;5065054;28;20098;-64
2022/10/27 04:59:22;;;;;;;11.60;7.90;;;;;;;;;;5066618;28;20520;-64
2022/10/27 05:01:48;;;;;;;13.23;8.32;;;;;;;;;;5069265;28;20036;-64
2022/10/27 05:04:14;;;;;;;12.77;8.00;;;;;;;;;;5079755;28;20082;-64
2022/10/27 05:06:40;;;;;;;12.32;7.75;;;;;;;;;;5069129;28;20037;-64
2022/10/27 05:09:09;;;;;;;12.40;8.18;;;;;;;;;;5066330;28;20807;-65
2022/10/27 05:11:35;;;;;;;12.30;8.48;;;;;;;;;;5067444;28;20571;-65
2022/10/27 05:14:01;;;;;;;11.07;8.23;;;;;;;;;;5053284;28;20041;-64
2022/10/27 05:16:27;;;;;;;12.10;7.65;;;;;;;;;;5070085;28;20048;-64
2022/10/27 05:18:53;;;;;;;10.10;6.38;;;;;;;;;;5062435;28;20041;-64
2022/10/27 05:21:19;;;;;;;11.52;7.70;;;;;;;;;;5067780;28;20064;-64
2022/10/27 05:23:45;;;;;;;12.95;7.97;;;;;;;;;;5068812;28;20161;-65
2022/10/27 05:26:11;;;;;;;10.75;7.35;;;;;;;;;;5068753;28;20067;-64
2022/10/27 05:28:37;;;;;;;13.02;7.70;;;;;;;;;;5069258;28;20037;-64
2022/10/27 05:31:03;;;;;;;12.77;9.43;;;;;;;;;;5069190;28;20048;-64
2022/10/27 05:33:29;;;;;;;10.80;8.25;;;;;;;;;;5070678;28;20036;-63
2022/10/27 05:35:55;;;;;;;12.95;8.20;;;;;;;;;;5070858;28;20055;-64
2022/10/27 05:38:21;;;;;;;13.82;9.00;;;;;;;;;;5068772;28;20402;-64
2022/10/27 05:40:47;;;;;;;11.40;8.43;;;;;;;;;;5069813;28;20028;-64
2022/10/27 05:43:13;;;;;;;14.40;9.02;;;;;;;;;;5069011;28;20032;-64
2022/10/27 05:45:39;;;;;;;14.70;8.88;;;;;;;;;;5071101;28;20080;-64
2022/10/27 05:48:06;;;;;;;12.07;8.60;;;;;;;;;;5068293;28;20048;-64
2022/10/27 05:50:33;;;;;;;16.48;9.52;;;;;;;;;;5067498;28;20040;-64
2022/10/27 05:52:59;;;;;;;14.88;9.50;;;;;;;;;;5070165;28;20072;-65
2022/10/27 05:55:25;;;;;;;16.98;9.23;;;;;;;;;;5064405;28;20044;-64
2022/10/27 05:57:52;;;;;;;15.32;10.05;;;;;;;;;;5068532;28;20036;-64
2022/10/27 06:00:18;;;;;;;16.55;9.70;;;;;;;;;;5066343;28;20041;-64
2022/10/27 06:02:44;;;;;;;15.63;10.27;;;;;;;;;;5084385;28;20082;-64
2022/10/27 06:05:10;;;;;;;16.13;10.55;;;;;;;;;;5073344;28;20438;-64
2022/10/27 06:07:36;;;;;;;14.10;9.88;;;;;;;;;;5074382;28;20117;-63
2022/10/27 06:10:02;;;;;;;19.75;9.77;;;;;;;;;;5071076;28;20047;-64
2022/10/27 06:12:28;;;;;;;15.95;10.18;;;;;;;;;;5078736;28;20051;-64
2022/10/27 06:14:54;;;;;;;16.15;10.52;;;;;;;;;;5067027;28;20033;-64
2022/10/27 06:17:20;;;;;;;16.77;10.63;;;;;;;;;;5071948;28;20110;-64
2022/10/27 06:19:46;;;;;;;19.08;10.23;;;;;;;;;;5072722;28;20040;-64
2022/10/27 06:22:12;;;;;;;16.80;10.05;;;;;;;;;;5082767;28;20040;-64
2022/10/27 06:24:38;;;;;;;14.40;10.82;;;;;;;;;;5070525;28;20131;-64
2022/10/27 06:27:04;;;;;;;16.63;10.10;;;;;;;;;;5074415;28;20052;-64
2022/10/27 06:29:30;;;;;;;18.58;10.90;;;;;;;;;;5068725;28;20065;-64
2022/10/27 06:31:56;;;;;;;19.15;10.45;;;;;;;;;;5069449;28;20512;-64
2022/10/27 06:34:22;;;;;;;15.77;10.40;;;;;;;;;;5070774;28;20047;-64
2022/10/27 06:36:48;;;;;;;13.30;9.45;;;;;;;;;;5079031;28;20484;-64
2022/10/27 06:39:14;;;;;;;15.43;9.65;;;;;;;;;;5073300;28;20040;-64
2022/10/27 06:41:40;;;;;;;14.43;9.82;;;;;;;;;;5069891;28;20458;-65
2022/10/27 06:44:06;;;;;;;19.25;10.80;;;;;;;;;;5077500;28;20037;-64
2022/10/27 06:46:33;;;;;;;15.65;10.13;;;;;;;;;;5076789;28;20504;-64
2022/10/27 06:49:00;;;;;;;15.50;9.88;;;;;;;;;;5069484;28;20044;-64
2022/10/27 06:51:26;;;;;;;17.83;9.88;;;;;;;;;;5068087;28;20080;-64
2022/10/27 06:53:52;;;;;;;17.30;10.23;;;;;;;;;;5070397;28;20120;-64
2022/10/27 06:56:18;;;;;;;18.73;10.70;;;;;;;;;;5067048;28;20048;-64
2022/10/27 06:58:47;;;;;;;18.98;10.40;;;;;;;;;;5062865;28;20044;-64
2022/10/27 07:01:13;;;;;;;17.88;9.98;;;;;;;;;;5073205;28;20028;-64
2022/10/27 07:03:39;;;;;;;17.40;10.52;;;;;;;;;;5067783;28;20029;-64
2022/10/27 07:06:05;;;;;;;16.15;9.30;;;;;;;;;;5071927;28;20115;-64
2022/10/27 07:08:31;;;;;;;18.13;10.63;;;;;;;;;;5068029;28;20491;-64
2022/10/27 07:10:57;;;;;;;17.15;10.43;;;;;;;;;;5067663;28;20040;-65
2022/10/27 07:13:23;;;;;;;19.15;10.68;;;;;;;;;;5071138;28;20085;-64
2022/10/27 07:15:50;;;;;;;17.40;10.70;;;;;;;;;;5070796;28;20405;-64
2022/10/27 07:18:16;;;;;;;19.63;10.15;;;;;;;;;;5072010;28;20063;-64
2022/10/27 07:20:44;;;;;;;16.27;10.30;;;;;;;;;;5066311;28;20135;-65
2022/10/27 07:23:10;;;;;;;16.67;11.02;;;;;;;;;;5067162;28;20568;-65
2022/10/27 07:25:37;;;;;;;19.02;10.88;;;;;;;;;;5069107;28;20402;-64
2022/10/27 07:28:05;;;;;;;18.70;11.20;;;;;;;;;;5068148;28;20133;-64
2022/10/27 07:30:35;;;;;;;16.52;10.57;;;;;;;;;;5072265;28;20083;-64
2022/10/27 07:33:01;;;;;;;17.33;10.27;;;;;;;;;;5064626;28;20117;-64
2022/10/27 07:35:28;;;;;;;16.85;10.45;;;;;;;;;;5067923;28;20506;-64
2022/10/27 07:37:54;;;;;;;19.50;10.52;;;;;;;;;;5067446;28;20127;-64
2022/10/27 07:40:20;;;;;;;16.05;10.68;;;;;;;;;;5072052;28;20085;-64
2022/10/27 07:42:50;;;;;;;18.88;10.48;;;;;;;;;;5079248;28;20036;-64
2022/10/27 07:45:17;;;;;;;21.33;11.00;;;;;;;;;;5069940;28;20043;-64
2022/10/27 07:47:44;;;;;;;14.20;10.20;;;;;;;;;;5066656;28;20166;-64
2022/10/27 07:50:10;;;;;;;15.73;10.52;;;;;;;;;;5064715;28;20036;-64
2022/10/27 07:52:40;;;;;;;15.65;10.23;;;;;;;;;;5074942;28;20051;-64
2022/10/27 07:55:07;;;;;;;16.07;10.03;;;;;;;;;;5080446;28;20503;-65
2022/10/27 07:57:33;;;;;;;16.13;10.48;;;;;;;;;;5064232;28;20033;-65
2022/10/27 07:59:59;;;;;;;14.80;10.25;;;;;;;;;;5070492;28;20037;-65
2022/10/27 08:02:25;;;;;;;17.73;10.45;;;;;;;;;;5070058;28;20037;-64
2022/10/27 08:04:51;;;;;;;18.33;9.88;;;;;;;;;;5069785;28;20032;-64
2022/10/27 08:07:17;;;;;;;16.10;9.65;;;;;;;;;;5059337;28;20406;-64
2022/10/27 08:09:43;;;;;;;17.55;10.02;;;;;;;;;;5066349;28;20135;-64
2022/10/27 08:12:09;;;;;;;16.88;9.63;;;;;;;;;;5068844;28;20040;-64
2022/10/27 08:14:35;;;;;;;16.35;10.40;;;;;;;;;;5067748;28;20040;-64
2022/10/27 08:17:01;;;;;;;16.30;9.88;;;;;;;;;;5071209;28;20037;-64
2022/10/27 08:19:26;;;;;;;16.98;10.10;;;;;;;;;;5069921;28;20045;-64
2022/10/27 08:21:52;;;;;;;17.02;10.10;;;;;;;;;;5070072;28;20041;-64
2022/10/27 08:24:18;;;;;;;19.38;9.75;;;;;;;;;;5071120;28;20040;-64
2022/10/27 08:26:44;;;;;;;19.02;10.20;;;;;;;;;;5070654;28;20045;-65
2022/10/27 08:29:10;;;;;;;19.38;10.45;;;;;;;;;;5069807;28;20097;-64
2022/10/27 08:31:36;;;;;;;19.38;9.68;;;;;;;;;;5067365;28;20028;-64
2022/10/27 08:34:02;;;;;;;15.75;9.57;;;;;;;;;;5067224;28;20036;-65
2022/10/27 08:36:28;;;;;;;16.80;10.40;;;;;;;;;;5070162;28;20097;-64
2022/10/27 08:38:54;;;;;;;18.30;9.98;;;;;;;;;;5066084;28;20041;-64
2022/10/27 08:41:23;;;;;;;16.13;9.57;;;;;;;;;;5068427;28;20040;-64
2022/10/27 08:43:52;;;;;;;13.60;9.23;;;;;;;;;;5063618;28;20036;-65
2022/10/27 08:46:27;;;;;;;16.02;9.25;;;;;;;;;;5069632;28;20040;-66
2022/10/27 08:48:57;;;;;;;16.25;9.05;;;;;;;;;;5060542;28;20036;-66
2022/10/27 08:51:24;;;;;;;17.17;8.70;;;;;;;;;;5068540;28;20048;-66
2022/10/27 08:53:52;;;;;;;14.68;9.07;;;;;;;;;;5065140;28;20312;-66
2022/10/27 08:56:18;;;;;;;19.02;9.00;;;;;;;;;;5068232;28;20040;-66
2022/10/27 08:58:45;;;;;;;16.45;8.85;;;;;;;;;;5067126;28;20392;-66
2022/10/27 09:01:41;;;;;;;16.58;8.88;;;;;;;;;;5069682;28;20391;-66
2022/10/27 09:04:33;;;;;;;17.02;9.05;;;;;;;;;;5051179;28;20131;-65
2022/10/27 09:07:15;;;;;;;13.23;7.95;;;;;;;;;;5053908;28;20098;-65
2022/10/27 09:09:54;;;;;;;15.23;8.18;;;;;;;;;;5061905;28;20047;-65
2022/10/27 09:12:26;;;;;;;16.42;8.02;;;;;;;;;;5071193;28;20486;-65
2022/10/27 09:15:10;;;;;;;13.52;8.13;;;;;;;;;;5060232;28;20482;-66
2022/10/27 09:17:36;;;;;;;12.63;7.82;;;;;;;;;;5056434;28;20482;-66
2022/10/27 09:20:08;;;;;;;13.20;8.07;;;;;;;;;;5069945;28;20058;-66
2022/10/27 09:22:36;;;;;;;12.07;6.90;;;;;;;;;;5061905;28;20036;-66
2022/10/27 09:25:03;;;;;;;11.88;7.60;;;;;;;;;;5068969;28;20067;-65
2022/10/27 09:27:30;;;;;;;11.57;7.40;;;;;;;;;;5068902;28;20029;-66
2022/10/27 09:30:00;;;;;;;13.02;7.85;;;;;;;;;;5070278;28;20064;-66
2022/10/27 09:32:26;;;;;;;12.77;7.17;;;;;;;;;;5070980;28;20044;-66
2022/10/27 09:35:10;;;;;;;12.32;7.47;;;;;;;;;;5063555;28;20296;-66
2022/10/27 09:37:42;;;;;;;13.65;7.82;;;;;;;;;;5060802;28;20036;-66
2022/10/27 09:40:12;;;;;;;13.95;7.00;;;;;;;;;;5065018;28;20082;-66
2022/10/27 09:42:39;;;;;;;9.75;6.10;;;;;;;;;;5070795;28;20631;-66
2022/10/27 09:45:16;;;;;;;10.45;6.10;;;;;;;;;;5071179;28;20045;-62
2022/10/27 09:47:44;;;;;;;11.10;6.28;;;;;;;;;;5069370;28;20477;-63
2022/10/27 09:50:16;;;;;;;13.43;6.60;;;;;;;;;;5065128;28;20044;-64
2022/10/27 09:52:43;;;;;;;12.85;6.35;;;;;;;;;;5067057;28;20135;-63
2022/10/27 09:55:10;;;;;;;8.60;5.80;;;;;;;;;;5072886;28;20041;-64
2022/10/27 09:57:38;;;;;;;10.15;5.88;;;;;;;;;;5070460;28;20101;-65
2022/10/27 10:00:20;;;;;;;13.13;5.97;;;;;;;;;;5070329;28;20036;-65
2022/10/27 10:02:52;;;;;;;7.85;5.45;;;;;;;;;;5074609;28;20072;-65
2022/10/27 10:05:23;;;;;;;10.52;5.60;;;;;;;;;;5074510;28;20540;-65
2022/10/27 10:07:49;;;;;;;9.02;5.70;;;;;;;;;;5070707;28;20041;-65
2022/10/27 10:10:22;;;;;;;10.60;4.85;;;;;;;;;;5073499;28;20041;-65
2022/10/27 10:13:01;;;;;;;9.75;4.65;;;;;;;;;;5073600;28;20512;-65
2022/10/27 10:15:27;;;;;;;10.77;4.88;;;;;;;;;;5072095;28;20033;-65
2022/10/27 10:17:57;;;;;;;7.85;4.88;;;;;;;;;;5073422;28;20044;-65
2022/10/27 10:20:29;;;;;;;7.43;4.70;;;;;;;;;;5074087;28;20533;-65
2022/10/27 10:22:55;;;;;;;9.45;4.50;;;;;;;;;;5074334;28;20033;-65
2022/10/27 10:25:32;;;;;;;7.20;3.85;;;;;;;;;;5074462;28;20037;-65
2022/10/27 10:28:02;;;;;;;7.63;3.65;;;;;;;;;;5072521;28;20538;-65
2022/10/27 10:30:31;;;;;;;6.80;3.78;;;;;;;;;;5073084;28;20067;-65
2022/10/27 10:32:57;;;;;;;8.27;3.78;;;;;;;;;;5072884;28;20036;-65
2022/10/27 10:35:42;;;;;;;10.38;3.97;;;;;;;;;;5074325;28;20043;-65
2022/10/27 10:38:23;;;;;;;5.68;3.17;;;;;;;;;;5072319;28;20047;-65
2022/10/27 10:41:06;;;;;;;5.55;3.53;;;;;;;;;;5069584;28;20598;-65
2022/10/27 10:43:32;;;;;;;5.72;2.85;;;;;;;;;;5072154;28;20060;-65
2022/10/27 10:45:58;;;;;;;6.35;3.33;;;;;;;;;;5072719;28;20036;-65
2022/10/27 10:48:33;;;;;;;5.88;3.10;;;;;;;;;;5068854;28;20036;-66
2022/10/27 10:50:59;;;;;;;5.18;2.90;;;;;;;;;;5072379;28;20115;-66
2022/10/27 10:53:34;;;;;;;6.88;2.97;;;;;;;;;;5073693;28;20048;-66
2022/10/27 10:56:02;;;;;;;8.35;2.78;;;;;;;;;;5070358;28;20628;-65
2022/10/27 10:58:30;;;;;;;5.40;2.95;;;;;;;;;;5071334;28;20506;-65
2022/10/27 11:01:04;;;;;;;7.78;3.50;;;;;;;;;;5071440;28;20039;-65
2022/10/27 11:03:36;;;;;;;6.57;2.83;;;;;;;;;;5063906;28;20060;-65
2022/10/27 11:06:04;;;;;;;6.97;2.92;;;;;;;;;;5073285;28;20437;-66
2022/10/27 11:08:35;;;;;;;5.15;2.85;;;;;;;;;;5071890;28;20045;-65
2022/10/27 11:11:02;;;;;;;5.25;2.90;;;;;;;;;;5068665;28;20062;-65
2022/10/27 11:13:34;;;;;;;6.45;2.70;;;;;;;;;;5072008;28;20462;-65
2022/10/27 11:16:01;;;;;;;3.90;2.78;;;;;;;;;;5072478;28;20047;-65
2022/10/27 11:18:46;;;;;;;7.05;3.00;;;;;;;;;;5073364;28;20055;-64
2022/10/27 11:21:14;;;;;;;5.60;2.90;;;;;;;;;;5070424;28;20040;-65
2022/10/27 11:23:43;;;;;;;6.82;2.95;;;;;;;;;;5071807;28;20028;-66
2022/10/27 11:26:10;;;;;;;4.15;2.60;;;;;;;;;;5069499;28;20452;-65
2022/10/27 11:28:49;;;;;;;5.53;2.58;;;;;;;;;;5062152;28;20040;-65
2022/10/27 11:31:18;;;;;;;6.75;3.00;;;;;;;;;;5065774;28;20074;-66
2022/10/27 11:33:50;;;;;;;3.78;2.28;;;;;;;;;;5067751;28;20486;-66
2022/10/27 11:36:37;;;;;;;4.30;3.00;;;;;;;;;;5069520;28;20055;-66
2022/10/27 11:39:07;;;;;;;6.00;2.65;;;;;;;;;;5070280;28;20402;-66
2022/10/27 11:41:59;;;;;;;5.43;2.53;;;;;;;;;;5071315;28;20066;-65
2022/10/27 11:44:28;;;;;;;4.32;2.35;;;;;;;;;;5061128;28;20047;-65
2022/10/27 11:47:00;;;;;;;5.57;2.50;;;;;;;;;;5066996;28;20451;-66
2022/10/27 11:49:26;;;;;;;3.20;2.20;;;;;;;;;;5068210;28;20656;-65
2022/10/27 11:51:56;;;;;;;3.55;2.10;;;;;;;;;;5072837;28;20124;-65
2022/10/27 11:54:22;;;;;;;3.83;2.10;;;;;;;;;;5065862;28;20044;-65
2022/10/27 11:56:54;;;;;;;4.78;2.15;;;;;;;;;;5066783;28;20044;-65
2022/10/27 11:59:23;;;;;;;4.97;2.10;;;;;;;;;;5070937;28;20044;-65
2022/10/27 12:02:12;;;;;;;6.10;2.42;;;;;;;;;;5073973;28;20032;-65
2022/10/27 12:04:44;;;;;;;4.25;2.28;;;;;;;;;;5061568;28;20390;-65
2022/10/27 12:07:28;;;;;;;6.18;2.80;;;;;;;;;;5066289;28;20043;-65
2022/10/27 12:09:54;;;;;;;7.05;2.35;;;;;;;;;;5066149;28;20032;-65
2022/10/27 12:12:26;;;;;;;6.63;2.40;;;;;;;;;;5068175;28;20036;-65
2022/10/27 12:14:59;;;;;;;4.25;2.53;;;;;;;;;;5071360;28;20071;-65
2022/10/27 12:17:37;;;;;;;7.53;2.60;;;;;;;;;;5077539;28;20044;-65
2022/10/27 12:20:04;;;;;;;8.85;2.70;;;;;;;;;;5079726;28;20043;-65
2022/10/27 12:22:36;;;;;;;7.22;2.42;;;;;;;;;;5070364;28;20615;-65
2022/10/27 12:25:20;;;;;;;8.20;2.80;;;;;;;;;;5067712;28;20607;-64
2022/10/27 12:27:48;;;;;;;6.50;2.67;;;;;;;;;;5062710;28;20069;-65
2022/10/27 12:30:16;;;;;;;6.43;2.95;;;;;;;;;;5064966;28;20040;-64
2022/10/27 12:32:48;;;;;;;3.75;2.42;;;;;;;;;;5062937;28;20082;-65
2022/10/27 12:35:32;;;;;;;5.65;2.38;;;;;;;;;;5066838;28;20040;-64
2022/10/27 12:38:12;;;;;;;4.63;2.60;;;;;;;;;;5068970;28;20046;-65
2022/10/27 12:40:47;;;;;;;6.35;2.35;;;;;;;;;;5061815;28;20041;-65
2022/10/27 12:43:16;;;;;;;7.70;2.60;;;;;;;;;;5068022;28;20402;-65
2022/10/27 12:46:01;;;;;;;8.57;2.88;;;;;;;;;;5061970;28;20041;-65
2022/10/27 12:48:30;;;;;;;4.30;2.10;;;;;;;;;;5068061;28;20064;-65
2022/10/27 12:50:59;;;;;;;2.45;2.00;;;;;;;;;;5065403;28;20105;-65
2022/10/27 12:53:25;;;;;;;13.07;2.53;;;;;;;;;;5066655;28;20106;-65
2022/10/27 12:56:10;;;;;;;4.43;2.00;;;;;;;;;;5067764;28;20029;-65
2022/10/27 12:58:36;;;;;;;3.47;1.98;;;;;;;;;;5067161;28;20512;-65
2022/10/27 13:01:04;;;;;;;3.80;2.08;;;;;;;;;;5068257;28;20028;-65
2022/10/27 13:03:30;;;;;;;5.07;2.42;;;;;;;;;;5067840;28;20505;-65
2022/10/27 13:05:59;;;;;;;5.72;1.98;;;;;;;;;;5063902;28;20028;-65
2022/10/27 13:08:44;;;;;;;7.28;2.30;;;;;;;;;;5069042;28;20036;-65
2022/10/27 13:11:19;;;;;;;6.63;2.22;;;;;;;;;;5067991;28;20446;-65
2022/10/27 13:13:51;;;;;;;4.97;1.98;;;;;;;;;;5070649;28;20120;-65
2022/10/27 13:16:26;;;;;;;4.28;2.10;;;;;;;;;;5072455;28;20033;-65
2022/10/27 13:18:52;;;;;;;6.15;1.90;;;;;;;;;;5061953;28;20036;-65
2022/10/27 13:21:24;;;;;;;6.22;2.58;;;;;;;;;;5066425;28;20105;-65
2022/10/27 13:23:57;;;;;;;3.67;1.80;;;;;;;;;;5068387;28;20047;-65
2022/10/27 13:26:30;;;;;;;4.30;1.83;;;;;;;;;;5069414;28;20041;-65
2022/10/27 13:29:06;;;;;;;5.78;1.80;;;;;;;;;;5067625;28;20089;-65
2022/10/27 13:31:32;;;;;;;7.70;1.70;;;;;;;;;;5068352;28;20113;-65
2022/10/27 13:33:58;;;;;;;4.68;1.52;;;;;;;;;;5065318;28;20498;-66
2022/10/27 13:36:26;;;;;;;6.05;1.30;;;;;;;;;;5074887;28;20497;-65
2022/10/27 13:39:12;;;;;;;6.47;1.55;;;;;;;;;;5079334;28;20045;-65
2022/10/27 13:41:56;;;;;;;4.82;1.75;;;;;;;;;;5075166;28;20521;-65
2022/10/27 13:44:30;;;;;;;4.70;1.15;;;;;;;;;;5075932;28;20502;-65
2022/10/27 13:47:01;;;;;;;4.45;1.38;;;;;;;;;;5083195;28;20032;-65
2022/10/27 13:49:40;;;;;;;3.33;1.40;;;;;;;;;;5074167;28;20141;-65
2022/10/27 13:52:15;;;;;;;5.50;1.38;;;;;;;;;;5074572;28;20040;-65
2022/10/27 13:54:51;;;;;;;6.88;1.40;;;;;;;;;;5071921;28;20048;-65
2022/10/27 13:57:27;;;;;;;4.57;1.40;;;;;;;;;;5074063;28;20098;-65
2022/10/27 13:59:58;;;;;;;2.70;1.30;;;;;;;;;;5073474;28;20106;-65
2022/10/27 14:02:28;;;;;;;2.78;1.23;;;;;;;;;;5083471;28;20123;-65
2022/10/27 14:04:59;;;;;;;2.10;1.57;;;;;;;;;;5074046;28;20037;-65
2022/10/27 14:07:26;;;;;;;2.53;1.35;;;;;;;;;;5069764;28;20040;-65
2022/10/27 14:09:52;;;;;;;5.05;1.40;;;;;;;;;;5071320;28;20556;-64
2022/10/27 14:12:31;;;;;;;6.35;1.55;;;;;;;;;;5065441;28;20098;-64
2022/10/27 14:15:20;;;;;;;3.03;1.48;;;;;;;;;;5064389;28;20547;-65
2022/10/27 14:17:47;;;;;;;3.70;1.60;;;;;;;;;;5063807;28;20049;-65
2022/10/27 14:20:16;;;;;;;4.03;1.35;;;;;;;;;;5073127;28;20046;-65
2022/10/27 14:22:45;;;;;;;4.97;1.77;;;;;;;;;;5079181;28;20037;-65
2022/10/27 14:25:14;;;;;;;5.82;1.70;;;;;;;;;;5072508;28;20094;-65
2022/10/27 14:27:40;;;;;;;4.53;1.60;;;;;;;;;;5073686;28;20112;-65
2022/10/27 14:30:12;;;;;;;3.88;1.67;;;;;;;;;;5071737;28;20079;-65
2022/10/27 14:32:38;;;;;;;5.35;1.80;;;;;;;;;;5080966;28;20521;-65
2022/10/27 14:35:15;;;;;;;4.88;1.55;;;;;;;;;;5073100;28;20045;-65
2022/10/27 14:37:42;;;;;;;2.95;1.80;;;;;;;;;;5066087;28;20102;-65
2022/10/27 14:40:18;;;;;;;6.28;1.35;;;;;;;;;;5067080;28;20044;-63
2022/10/27 14:42:44;;;;;;;5.50;1.45;;;;;;;;;;5050010;28;20035;-65
2022/10/27 14:45:19;;;;;;;4.28;1.70;;;;;;;;;;5060199;28;20047;-65